createdAt,value
2018-08-30T00:00:05.854Z,21.28
2018-08-30T00:05:07.982Z,21.28
2018-08-30T00:10:10.222Z,21.20
2018-08-30T00:15:12.577Z,21.15
2018-08-30T00:20:14.721Z,21.20
2018-08-30T00:25:16.887Z,21.13
2018-08-30T00:30:19.003Z,21.13
2018-08-30T00:35:21.163Z,21.12
2018-08-30T00:40:23.309Z,21.08
2018-08-30T00:45:25.441Z,21.06
2018-08-30T00:50:27.565Z,21.01
2018-08-30T00:55:29.685Z,21.05
2018-08-30T01:00:31.819Z,21.02
2018-08-30T01:05:34.346Z,20.98
2018-08-30T01:10:36.503Z,20.99
2018-08-30T01:15:38.619Z,20.96
2018-08-30T01:20:40.746Z,20.92
2018-08-30T01:25:42.869Z,20.91
2018-08-30T01:30:45.031Z,20.90
2018-08-30T01:35:47.282Z,20.68
2018-08-30T01:40:49.436Z,20.56
2018-08-30T01:45:51.682Z,20.57
2018-08-30T01:50:53.801Z,20.63
2018-08-30T01:55:55.897Z,20.63
2018-08-30T02:00:58.039Z,20.64
2018-08-30T02:06:00.260Z,20.59
2018-08-30T02:11:02.404Z,20.48
2018-08-30T02:16:04.680Z,20.41
2018-08-30T02:21:06.827Z,20.48
2018-08-30T02:26:08.946Z,20.50
2018-08-30T02:31:11.088Z,20.48
2018-08-30T02:36:13.516Z,20.48
2018-08-30T02:41:15.647Z,20.46
2018-08-30T02:46:17.748Z,20.42
2018-08-30T02:51:19.899Z,20.42
2018-08-30T02:56:22.003Z,20.37
2018-08-30T03:01:24.127Z,20.37
2018-08-30T03:06:26.939Z,20.31
2018-08-30T03:11:29.042Z,20.31
2018-08-30T03:16:31.199Z,20.28
2018-08-30T03:21:33.372Z,20.26
2018-08-30T03:26:35.512Z,20.24
2018-08-30T03:31:37.674Z,20.24
2018-08-30T03:36:39.817Z,20.22
2018-08-30T03:41:41.973Z,20.23
2018-08-30T03:46:44.102Z,20.24
2018-08-30T03:51:46.215Z,20.22
2018-08-30T03:56:48.348Z,20.21
2018-08-30T04:01:50.481Z,20.22
2018-08-30T04:06:52.613Z,20.18
2018-08-30T04:11:54.733Z,20.23
2018-08-30T04:16:56.908Z,20.22
2018-08-30T04:21:59.180Z,20.19
2018-08-30T04:27:01.311Z,20.17
2018-08-30T04:32:03.440Z,20.15
2018-08-30T04:37:05.614Z,20.15
2018-08-30T04:42:07.739Z,20.12
2018-08-30T04:47:09.862Z,19.96
2018-08-30T04:52:12.025Z,20.10
2018-08-30T04:57:14.171Z,20.09
2018-08-30T05:02:16.318Z,20.06
2018-08-30T05:07:18.498Z,20.08
2018-08-30T05:12:20.632Z,20.07
2018-08-30T05:17:22.728Z,20.07
2018-08-30T05:22:24.868Z,20.14
2018-08-30T05:27:27.018Z,20.13
2018-08-30T05:32:29.247Z,20.11
2018-08-30T05:37:31.827Z,20.04
2018-08-30T05:42:34.042Z,20.01
2018-08-30T05:47:36.190Z,19.97
2018-08-30T05:52:38.319Z,20.03
2018-08-30T05:57:40.420Z,20.04
2018-08-30T06:02:42.559Z,20.01
2018-08-30T06:07:44.669Z,20.02
2018-08-30T06:12:46.792Z,19.98
2018-08-30T06:17:48.936Z,19.97
2018-08-30T06:22:51.080Z,19.96
2018-08-30T06:27:53.181Z,19.98
2018-08-30T06:32:55.445Z,19.97
2018-08-30T06:37:57.510Z,19.97
2018-08-30T06:42:59.652Z,19.96
2018-08-30T06:48:01.798Z,19.97
2018-08-30T06:53:03.959Z,19.99
2018-08-30T06:58:06.085Z,20.00
2018-08-30T07:03:08.204Z,20.00
2018-08-30T07:08:10.557Z,19.94
2018-08-30T07:13:12.676Z,19.87
2018-08-30T07:18:14.813Z,19.85
2018-08-30T07:23:16.935Z,19.80
2018-08-30T07:28:19.057Z,19.85
2018-08-30T07:33:21.213Z,19.83
2018-08-30T07:38:23.391Z,19.77
2018-08-30T07:43:25.522Z,19.94
2018-08-30T07:48:27.649Z,20.08
2018-08-30T07:53:29.797Z,20.15
2018-08-30T07:58:31.989Z,20.23
2018-08-30T08:03:34.110Z,20.32
2018-08-30T08:08:36.222Z,20.31
2018-08-30T08:13:38.371Z,20.31
2018-08-30T08:18:40.523Z,20.22
2018-08-30T08:23:42.660Z,20.16
2018-08-30T08:28:44.820Z,20.23
2018-08-30T08:33:47.005Z,20.17
2018-08-30T08:38:49.378Z,20.10
2018-08-30T08:43:51.511Z,20.07
2018-08-30T08:48:53.634Z,20.02
2018-08-30T08:53:55.771Z,19.88
2018-08-30T08:58:58.340Z,19.87
2018-08-30T09:04:00.366Z,19.86
2018-08-30T09:09:03.044Z,19.90
2018-08-30T09:14:05.247Z,19.84
2018-08-30T09:19:07.406Z,19.90
2018-08-30T09:24:09.572Z,19.92
2018-08-30T09:29:11.974Z,19.91
2018-08-30T09:34:14.131Z,19.82
2018-08-30T09:39:16.327Z,19.71
2018-08-30T09:44:18.483Z,19.70
2018-08-30T09:49:20.761Z,19.72
2018-08-30T09:54:22.823Z,19.63
2018-08-30T09:59:24.939Z,19.60
2018-08-30T10:04:27.074Z,19.58
2018-08-30T10:09:29.196Z,19.53
2018-08-30T10:14:31.362Z,19.43
2018-08-30T10:19:33.499Z,19.37
2018-08-30T10:24:35.669Z,19.37
2018-08-30T10:29:37.861Z,19.33
2018-08-30T10:34:40.035Z,19.34
2018-08-30T10:39:42.183Z,19.26
2018-08-30T10:44:44.530Z,19.25
2018-08-30T10:49:46.722Z,19.15
2018-08-30T10:54:48.817Z,19.17
2018-08-30T10:59:50.979Z,16.71
2018-08-30T11:04:53.239Z,19.08
2018-08-30T11:09:55.436Z,19.03
2018-08-30T11:14:57.631Z,19.00
2018-08-30T11:19:59.809Z,18.98
2018-08-30T11:25:02.018Z,19.01
2018-08-30T11:30:04.202Z,19.06
2018-08-30T11:35:06.358Z,19.00
2018-08-30T11:40:08.547Z,18.91
2018-08-30T11:45:10.737Z,18.87
2018-08-30T11:50:12.887Z,18.86
2018-08-30T11:55:15.068Z,18.71
2018-08-30T12:00:17.190Z,18.68
2018-08-30T12:05:19.345Z,18.68
2018-08-30T12:10:21.561Z,18.71
2018-08-30T12:15:23.726Z,18.59
2018-08-30T12:20:25.948Z,18.56
2018-08-30T12:25:28.074Z,18.56
2018-08-30T12:30:30.285Z,18.49
2018-08-30T12:35:32.526Z,18.47
2018-08-30T12:40:34.778Z,18.51
2018-08-30T12:45:36.981Z,18.50
2018-08-30T12:50:39.531Z,18.49
2018-08-30T12:55:41.679Z,18.41
2018-08-30T13:00:43.893Z,18.46
2018-08-30T13:05:46.313Z,18.42
2018-08-30T13:10:48.501Z,18.46
2018-08-30T13:15:50.519Z,18.47
2018-08-30T13:20:52.798Z,18.52
2018-08-30T13:25:54.922Z,18.54
2018-08-30T13:30:57.218Z,18.49
2018-08-30T13:35:59.415Z,18.50
2018-08-30T13:41:01.663Z,18.49
2018-08-30T13:46:03.942Z,18.31
2018-08-30T13:51:06.277Z,18.32
2018-08-30T13:56:08.469Z,18.42
2018-08-30T14:01:11.015Z,18.36
2018-08-30T14:06:12.736Z,18.31
2018-08-30T14:11:14.989Z,18.17
2018-08-30T14:16:16.852Z,18.19
2018-08-30T14:21:19.133Z,18.15
2018-08-30T14:26:21.268Z,18.16
2018-08-30T14:31:23.401Z,18.19
2018-08-30T14:36:25.548Z,18.17
2018-08-30T14:41:27.798Z,18.12
2018-08-30T14:46:29.932Z,18.08
2018-08-30T14:51:32.218Z,18.04
2018-08-30T14:56:34.410Z,18.05
2018-08-30T15:01:36.593Z,18.09
2018-08-30T15:06:38.776Z,18.07
2018-08-30T15:11:40.979Z,18.06
2018-08-30T15:21:45.242Z,18.07
2018-08-30T15:26:47.582Z,18.08
2018-08-30T15:31:49.703Z,18.03
2018-08-30T15:36:51.881Z,18.03
2018-08-30T15:41:54.170Z,17.99
2018-08-30T15:46:56.327Z,18.04
2018-08-30T15:51:58.748Z,18.04
2018-08-30T15:57:01.073Z,17.98
2018-08-30T16:02:03.192Z,17.98
2018-08-30T16:07:05.386Z,17.99
2018-08-30T16:12:07.627Z,18.04
2018-08-30T16:17:09.858Z,18.00
2018-08-30T16:22:12.057Z,18.03
2018-08-30T16:27:14.303Z,18.06
2018-08-30T16:32:16.497Z,18.03
2018-08-30T16:37:18.688Z,18.07
2018-08-30T16:42:20.919Z,18.08
2018-08-30T16:47:23.173Z,18.14
2018-08-30T16:52:25.330Z,18.16
2018-08-30T16:57:27.522Z,18.20
2018-08-30T17:02:29.925Z,18.18
2018-08-30T17:07:32.170Z,18.21
2018-08-30T17:12:34.461Z,18.21
2018-08-30T17:17:36.847Z,18.18
2018-08-30T17:22:39.187Z,18.19
2018-08-30T17:27:41.445Z,18.19
2018-08-30T17:32:43.683Z,18.20
2018-08-30T17:37:45.924Z,18.22
2018-08-30T17:42:48.584Z,18.21
2018-08-30T17:47:50.885Z,18.17
2018-08-30T17:52:53.186Z,17.97
2018-08-30T17:57:55.619Z,17.92
2018-08-30T18:02:57.919Z,17.87
2018-08-30T18:08:00.224Z,17.76
2018-08-30T18:13:02.441Z,17.68
2018-08-30T18:18:05.524Z,17.66
2018-08-30T18:23:07.714Z,17.55
2018-08-30T18:28:09.988Z,17.54
2018-08-30T18:33:12.926Z,17.50
2018-08-30T18:38:15.977Z,17.39
2018-08-30T18:43:18.333Z,17.35
2018-08-30T18:48:20.687Z,17.33
2018-08-30T18:53:24.647Z,17.21
2018-08-30T18:58:26.918Z,17.14
2018-08-30T19:03:29.227Z,17.06
2018-08-30T19:08:31.612Z,17.04
2018-08-30T19:13:33.965Z,16.99
2018-08-30T19:18:42.703Z,16.94
2018-08-30T19:23:45.004Z,16.89
2018-08-30T19:28:47.515Z,16.82
2018-08-30T19:33:50.901Z,16.79
2018-08-30T19:38:53.166Z,16.74
2018-08-30T19:43:55.549Z,16.70
2018-08-30T19:48:57.804Z,16.66
2018-08-30T19:54:00.023Z,16.63
2018-08-30T19:59:02.331Z,16.45
2018-08-30T20:04:05.543Z,16.39
2018-08-30T20:09:07.781Z,16.46
2018-08-30T20:14:10.024Z,16.43
2018-08-30T20:19:12.276Z,16.40
2018-08-30T20:24:14.486Z,16.34
2018-08-30T20:29:16.666Z,16.29
2018-08-30T20:34:18.814Z,16.26
2018-08-30T20:39:20.995Z,16.24
2018-08-30T20:44:23.261Z,16.16
2018-08-30T20:49:25.451Z,16.14
2018-08-30T20:54:27.638Z,16.11
2018-08-30T20:59:30.744Z,16.08
2018-08-30T21:04:32.937Z,16.03
2018-08-30T21:09:35.123Z,16.05
2018-08-30T21:14:37.274Z,16.02
2018-08-30T21:19:40.035Z,15.95
2018-08-30T21:24:42.162Z,15.97
2018-08-30T21:29:44.361Z,16.02
2018-08-30T21:34:46.477Z,15.96
2018-08-30T21:39:48.627Z,15.89
2018-08-30T21:44:50.823Z,15.89
2018-08-30T21:49:52.988Z,15.81
2018-08-30T21:54:55.188Z,15.74
2018-08-30T21:59:57.379Z,15.74
2018-08-30T22:04:59.650Z,15.71
2018-08-30T22:10:02.294Z,15.64
2018-08-30T22:15:04.781Z,15.62
2018-08-30T22:20:07.009Z,15.62
2018-08-30T22:25:09.189Z,15.56
2018-08-30T22:30:11.354Z,15.54
2018-08-30T22:35:13.538Z,15.51
2018-08-30T22:40:15.716Z,15.49
2018-08-30T22:45:17.901Z,15.50
2018-08-30T22:50:20.029Z,15.50
2018-08-30T22:55:22.302Z,15.49
2018-08-30T23:00:24.447Z,15.42
2018-08-30T23:05:26.686Z,15.39
2018-08-30T23:10:28.869Z,15.41
2018-08-30T23:15:31.017Z,15.32
2018-08-30T23:20:33.191Z,15.30
2018-08-30T23:25:35.316Z,15.27
2018-08-30T23:30:37.531Z,15.33
2018-08-30T23:35:39.644Z,15.28
2018-08-30T23:40:41.820Z,15.11
2018-08-30T23:45:43.998Z,15.14
2018-08-30T23:50:46.141Z,15.15
2018-08-30T23:55:48.305Z,15.13
